createdAt,value
2018-09-13T00:00:59.406Z,9.33
2018-09-13T00:03:27.757Z,8.00
2018-09-13T00:05:56.107Z,9.70
2018-09-13T00:08:24.554Z,9.90
2018-09-13T00:10:52.933Z,7.73
2018-09-13T00:13:21.363Z,8.37
2018-09-13T00:15:49.809Z,8.90
2018-09-13T00:18:18.176Z,9.27
2018-09-13T00:20:46.598Z,9.00
2018-09-13T00:23:15.061Z,8.73
2018-09-13T00:25:43.409Z,7.80
2018-09-13T00:28:11.850Z,8.60
2018-09-13T00:30:40.194Z,8.40
2018-09-13T00:33:08.619Z,9.17
2018-09-13T00:35:36.970Z,10.33
2018-09-13T00:38:05.326Z,7.97
2018-09-13T00:40:33.770Z,7.30
2018-09-13T00:43:02.150Z,8.40
2018-09-13T00:45:30.493Z,9.03
2018-09-13T00:47:58.858Z,9.10
2018-09-13T00:50:27.222Z,8.63
2018-09-13T00:52:55.581Z,8.37
2018-09-13T00:55:23.915Z,8.60
2018-09-13T00:57:52.271Z,8.00
2018-09-13T01:00:20.701Z,8.50
2018-09-13T01:02:49.006Z,7.50
2018-09-13T01:05:17.399Z,7.90
2018-09-13T01:07:45.774Z,7.20
2018-09-13T01:10:14.192Z,7.90
2018-09-13T01:12:42.634Z,8.37
2018-09-13T01:15:11.018Z,8.10
2018-09-13T01:17:40.269Z,8.90
2018-09-13T01:20:08.667Z,7.47
2018-09-13T01:22:36.991Z,7.27
2018-09-13T01:25:05.413Z,6.93
2018-09-13T01:27:33.802Z,7.67
2018-09-13T01:30:02.182Z,7.90
2018-09-13T01:32:30.819Z,8.40
2018-09-13T01:34:59.150Z,7.30
2018-09-13T01:37:27.526Z,6.50
2018-09-13T01:39:55.958Z,7.43
2018-09-13T01:42:24.317Z,7.30
2018-09-13T01:44:52.658Z,6.97
2018-09-13T01:47:21.047Z,6.60
2018-09-13T01:49:49.434Z,7.57
2018-09-13T01:52:17.797Z,7.13
2018-09-13T01:54:46.132Z,7.40
2018-09-13T01:57:14.488Z,7.57
2018-09-13T01:59:43.565Z,7.07
2018-09-13T02:02:11.957Z,6.40
2018-09-13T02:04:40.354Z,8.10
2018-09-13T02:07:08.851Z,6.37
2018-09-13T02:09:37.240Z,6.70
2018-09-13T02:12:05.824Z,6.50
2018-09-13T02:14:34.232Z,7.10
2018-09-13T02:17:02.616Z,6.43
2018-09-13T02:19:30.995Z,7.27
2018-09-13T02:21:59.914Z,7.20
2018-09-13T02:24:29.039Z,8.03
2018-09-13T02:26:57.382Z,7.37
2018-09-13T02:29:25.836Z,8.07
2018-09-13T02:31:54.213Z,7.37
2018-09-13T02:34:22.577Z,7.20
2018-09-13T02:36:51.020Z,7.33
2018-09-13T02:39:19.558Z,7.60
2018-09-13T02:41:48.002Z,7.73
2018-09-13T02:44:16.414Z,7.30
2018-09-13T02:46:44.938Z,7.37
2018-09-13T02:49:13.402Z,7.23
2018-09-13T02:51:41.727Z,7.90
2018-09-13T02:54:10.146Z,7.83
2018-09-13T02:56:38.506Z,8.10
2018-09-13T02:59:06.877Z,7.40
2018-09-13T03:01:35.297Z,8.27
2018-09-13T03:04:03.711Z,6.77
2018-09-13T03:06:32.093Z,7.23
2018-09-13T03:09:00.459Z,6.90
2018-09-13T03:11:28.912Z,7.40
2018-09-13T03:13:57.273Z,7.00
2018-09-13T03:16:25.642Z,6.30
2018-09-13T03:18:53.994Z,6.63
2018-09-13T03:21:22.338Z,7.20
2018-09-13T03:23:50.726Z,7.70
2018-09-13T03:26:19.127Z,7.10
2018-09-13T03:28:47.535Z,7.33
2018-09-13T03:31:15.905Z,6.80
2018-09-13T03:33:44.310Z,6.83
2018-09-13T03:36:12.690Z,7.17
2018-09-13T03:38:41.091Z,7.57
2018-09-13T03:41:09.458Z,6.83
2018-09-13T03:43:38.339Z,6.60
2018-09-13T03:46:06.749Z,7.23
2018-09-13T03:48:35.121Z,7.03
2018-09-13T03:51:03.900Z,6.47
2018-09-13T03:53:32.219Z,7.60
2018-09-13T03:56:00.858Z,7.30
2018-09-13T03:58:29.294Z,6.60
2018-09-13T04:00:57.689Z,6.60
2018-09-13T04:03:26.868Z,5.93
2018-09-13T04:05:55.164Z,6.60
2018-09-13T04:08:23.570Z,7.97
2018-09-13T04:10:51.903Z,6.80
2018-09-13T04:13:20.303Z,6.20
2018-09-13T04:15:48.630Z,6.80
2018-09-13T04:18:17.011Z,6.10
2018-09-13T04:20:45.384Z,6.40
2018-09-13T04:23:13.765Z,6.30
2018-09-13T04:25:42.134Z,5.73
2018-09-13T04:28:10.538Z,5.60
2018-09-13T04:30:38.914Z,6.07
2018-09-13T04:33:07.346Z,6.13
2018-09-13T04:35:36.018Z,5.60
2018-09-13T04:38:04.239Z,6.20
2018-09-13T04:40:32.627Z,5.70
2018-09-13T04:43:00.955Z,6.47
2018-09-13T04:45:29.291Z,5.57
2018-09-13T04:47:57.665Z,5.53
2018-09-13T04:50:26.058Z,5.50
2018-09-13T04:52:54.448Z,6.80
2018-09-13T04:55:22.827Z,6.40
2018-09-13T04:57:51.349Z,5.70
2018-09-13T05:00:19.769Z,6.03
2018-09-13T05:02:48.114Z,6.50
2018-09-13T05:05:16.527Z,5.93
2018-09-13T05:07:45.545Z,6.67
2018-09-13T05:10:13.989Z,6.87
2018-09-13T05:12:42.367Z,7.10
2018-09-13T05:15:10.719Z,7.53
2018-09-13T05:17:39.113Z,7.40
2018-09-13T05:20:07.574Z,7.50
2018-09-13T05:22:35.947Z,6.70
2018-09-13T05:25:04.603Z,7.30
2018-09-13T05:27:33.093Z,7.10
2018-09-13T05:30:01.496Z,7.53
2018-09-13T05:32:30.879Z,6.70
2018-09-13T05:34:59.326Z,8.07
2018-09-13T05:37:27.943Z,8.37
2018-09-13T05:39:56.295Z,8.70
2018-09-13T05:42:24.718Z,7.93
2018-09-13T05:44:53.190Z,7.23
2018-09-13T05:47:21.590Z,7.60
2018-09-13T05:49:49.959Z,7.10
2018-09-13T05:52:18.346Z,6.67
2018-09-13T05:54:46.697Z,7.40
2018-09-13T05:57:15.095Z,8.07
2018-09-13T05:59:43.484Z,8.20
2018-09-13T06:02:11.968Z,7.30
2018-09-13T06:04:40.378Z,7.40
2018-09-13T06:07:08.769Z,8.13
2018-09-13T06:09:37.155Z,8.20
2018-09-13T06:12:05.569Z,10.20
2018-09-13T06:14:33.955Z,8.97
2018-09-13T06:17:02.393Z,8.60
2018-09-13T06:19:30.766Z,9.10
2018-09-13T06:21:59.134Z,8.03
2018-09-13T06:24:27.486Z,8.47
2018-09-13T06:26:55.886Z,9.00
2018-09-13T06:29:24.290Z,9.03
2018-09-13T06:31:52.651Z,9.73
2018-09-13T06:34:21.009Z,8.80
2018-09-13T06:36:49.405Z,8.50
2018-09-13T06:39:17.831Z,10.03
2018-09-13T06:41:46.210Z,9.20
2018-09-13T06:44:14.605Z,7.70
2018-09-13T06:46:43.014Z,9.00
2018-09-13T06:49:11.410Z,8.70
2018-09-13T06:51:39.816Z,8.53
2018-09-13T06:54:08.286Z,9.50
2018-09-13T06:56:36.681Z,10.47
2018-09-13T06:59:05.055Z,9.67
2018-09-13T07:01:33.440Z,8.93
2018-09-13T07:04:02.418Z,9.00
2018-09-13T07:06:30.813Z,7.90
2018-09-13T07:08:59.214Z,8.40
2018-09-13T07:11:28.204Z,8.20
2018-09-13T07:13:56.563Z,8.77
2018-09-13T07:16:24.983Z,8.80
2018-09-13T07:18:53.352Z,9.63
2018-09-13T07:21:21.742Z,9.67
2018-09-13T07:23:50.164Z,8.87
2018-09-13T07:26:22.920Z,8.87
2018-09-13T07:28:51.330Z,9.70
2018-09-13T07:31:19.753Z,9.20
2018-09-13T07:33:48.147Z,9.97
2018-09-13T07:36:16.600Z,9.07
2018-09-13T07:38:44.946Z,9.27
2018-09-13T07:41:13.292Z,8.27
2018-09-13T07:43:41.801Z,9.60
2018-09-13T07:46:10.213Z,8.57
2018-09-13T07:48:38.627Z,8.70
2018-09-13T07:51:06.977Z,8.83
2018-09-13T07:53:35.394Z,8.93
2018-09-13T07:56:03.769Z,9.63
2018-09-13T07:58:32.140Z,9.53
2018-09-13T08:01:00.560Z,8.00
2018-09-13T08:03:29.031Z,8.30
2018-09-13T08:05:57.401Z,8.93
2018-09-13T08:08:25.839Z,8.90
2018-09-13T08:10:54.314Z,8.00
2018-09-13T08:13:22.759Z,7.03
2018-09-13T08:15:51.282Z,7.80
2018-09-13T08:18:20.455Z,8.77
2018-09-13T08:20:48.847Z,8.77
2018-09-13T08:23:17.247Z,8.47
2018-09-13T08:25:45.650Z,9.07
2018-09-13T08:28:26.798Z,7.87
2018-09-13T08:30:55.233Z,9.17
2018-09-13T08:33:23.762Z,8.43
2018-09-13T08:35:52.188Z,7.87
2018-09-13T08:38:20.559Z,8.50
2018-09-13T08:40:49.041Z,8.83
2018-09-13T08:43:17.459Z,8.07
2018-09-13T08:45:45.866Z,8.83
2018-09-13T08:48:14.242Z,7.83
2018-09-13T08:50:42.627Z,7.70
2018-09-13T08:53:11.036Z,8.93
2018-09-13T08:55:39.476Z,8.40
2018-09-13T08:58:07.855Z,8.80
2018-09-13T09:00:36.312Z,8.50
2018-09-13T09:03:04.705Z,8.27
2018-09-13T09:05:33.238Z,8.00
2018-09-13T09:08:01.648Z,7.43
2018-09-13T09:10:30.084Z,8.30
2018-09-13T09:12:58.439Z,6.90
2018-09-13T09:15:26.865Z,7.47
2018-09-13T09:17:55.338Z,7.40
2018-09-13T09:20:23.790Z,6.60
2018-09-13T09:22:52.157Z,7.33
2018-09-13T09:25:20.526Z,7.53
2018-09-13T09:27:48.957Z,7.43
2018-09-13T09:30:17.363Z,7.17
2018-09-13T09:32:45.771Z,6.60
2018-09-13T09:35:14.303Z,6.80
2018-09-13T09:37:42.724Z,7.53
2018-09-13T09:40:11.188Z,7.30
2018-09-13T09:42:39.614Z,6.13
2018-09-13T09:45:08.025Z,6.90
2018-09-13T09:47:36.488Z,7.57
2018-09-13T09:50:05.527Z,7.30
2018-09-13T09:52:33.868Z,6.80
2018-09-13T09:55:02.293Z,6.53
2018-09-13T09:57:30.730Z,6.97
2018-09-13T09:59:59.146Z,6.30
2018-09-13T10:02:27.786Z,7.10
2018-09-13T10:04:56.202Z,7.67
2018-09-13T10:07:24.588Z,7.03
2018-09-13T10:09:53.019Z,7.23
2018-09-13T10:12:21.475Z,6.50
2018-09-13T10:14:55.222Z,7.30
2018-09-13T10:17:29.788Z,6.93
2018-09-13T10:20:03.295Z,7.40
2018-09-13T10:22:37.126Z,6.70
2018-09-13T10:25:10.834Z,8.03
2018-09-13T10:27:44.587Z,6.70
2018-09-13T10:30:18.780Z,6.83
2018-09-13T10:32:52.589Z,7.73
2018-09-13T10:35:26.872Z,8.20
2018-09-13T10:38:00.640Z,8.00
2018-09-13T10:40:34.521Z,7.30
2018-09-13T10:43:08.265Z,8.40
2018-09-13T10:45:41.817Z,9.10
2018-09-13T10:48:30.437Z,9.27
2018-09-13T10:51:04.202Z,9.03
2018-09-13T10:53:38.015Z,7.30
2018-09-13T10:56:07.644Z,8.30
2018-09-13T10:58:36.033Z,9.67
2018-09-13T11:01:04.432Z,8.70
2018-09-13T11:03:32.858Z,8.60
2018-09-13T11:06:01.327Z,8.30
2018-09-13T11:08:29.801Z,8.20
2018-09-13T11:10:58.495Z,7.97
2018-09-13T11:13:35.811Z,8.03
2018-09-13T11:16:04.185Z,7.50
2018-09-13T11:18:32.599Z,8.00
2018-09-13T11:21:01.022Z,8.23
2018-09-13T11:23:29.597Z,7.93
2018-09-13T11:25:57.915Z,9.57
2018-09-13T11:28:26.411Z,8.47
2018-09-13T11:31:00.248Z,8.30
2018-09-13T11:33:28.688Z,8.80
2018-09-13T11:35:57.070Z,7.10
2018-09-13T11:38:25.692Z,7.30
2018-09-13T11:40:54.444Z,8.23
2018-09-13T11:43:22.616Z,8.20
2018-09-13T11:45:51.102Z,7.43
2018-09-13T11:48:19.506Z,7.40
2018-09-13T11:50:48.107Z,8.60
2018-09-13T11:53:16.548Z,8.53
2018-09-13T11:55:45.859Z,8.50
2018-09-13T11:58:15.903Z,7.53
2018-09-13T12:00:44.472Z,8.70
2018-09-13T12:03:14.075Z,6.93
2018-09-13T12:05:42.514Z,7.03
2018-09-13T12:08:10.907Z,8.57
2018-09-13T12:10:39.311Z,6.83
2018-09-13T12:13:07.693Z,6.87
2018-09-13T12:15:36.063Z,6.93
2018-09-13T12:18:04.541Z,7.27
2018-09-13T12:20:32.959Z,7.70
2018-09-13T12:23:01.339Z,7.47
2018-09-13T12:25:29.771Z,7.17
2018-09-13T12:27:58.130Z,8.47
2018-09-13T12:30:26.535Z,7.77
2018-09-13T12:32:54.943Z,9.40
2018-09-13T12:35:23.316Z,7.13
2018-09-13T12:37:51.928Z,6.00
2018-09-13T12:40:20.350Z,7.00
2018-09-13T12:42:48.742Z,6.90
2018-09-13T12:45:17.184Z,7.93
2018-09-13T12:47:45.583Z,6.97
2018-09-13T12:50:14.061Z,7.40
2018-09-13T12:52:42.495Z,7.30
2018-09-13T12:55:10.891Z,6.97
2018-09-13T12:57:39.270Z,8.00
2018-09-13T13:00:07.742Z,6.83
2018-09-13T13:02:36.418Z,7.03
2018-09-13T13:05:04.933Z,7.00
2018-09-13T13:07:33.300Z,7.43
2018-09-13T13:10:01.714Z,7.90
2018-09-13T13:12:30.167Z,8.00
2018-09-13T13:14:58.580Z,8.50
2018-09-13T13:17:27.043Z,7.60
2018-09-13T13:19:55.624Z,7.00
2018-09-13T13:22:23.888Z,7.63
2018-09-13T13:24:52.282Z,7.13
2018-09-13T13:27:20.721Z,7.40
2018-09-13T13:29:49.137Z,6.60
2018-09-13T13:32:17.554Z,6.40
2018-09-13T13:34:45.959Z,6.87
2018-09-13T13:37:14.407Z,7.33
2018-09-13T13:39:42.819Z,6.77
2018-09-13T13:42:11.142Z,6.20
2018-09-13T13:44:39.549Z,6.00
2018-09-13T13:47:08.061Z,5.27
2018-09-13T13:49:36.483Z,5.80
2018-09-13T13:52:04.926Z,6.03
2018-09-13T13:54:33.500Z,6.40
2018-09-13T13:57:01.892Z,4.80
2018-09-13T13:59:30.334Z,6.37
2018-09-13T14:01:58.758Z,5.80
2018-09-13T14:04:27.159Z,6.13
2018-09-13T14:06:55.528Z,6.50
2018-09-13T14:09:23.931Z,5.60
2018-09-13T14:11:52.328Z,5.50
2018-09-13T14:14:20.697Z,5.53
2018-09-13T14:16:49.139Z,5.50
2018-09-13T14:19:17.614Z,5.90
2018-09-13T14:21:45.977Z,5.70
2018-09-13T14:24:14.410Z,5.60
2018-09-13T14:26:42.772Z,4.40
2018-09-13T14:29:11.131Z,5.03
2018-09-13T14:31:39.551Z,5.03
2018-09-13T14:34:08.316Z,6.03
2018-09-13T14:36:36.797Z,5.10
2018-09-13T14:39:07.154Z,5.60
2018-09-13T14:41:35.833Z,5.47
2018-09-13T14:44:04.734Z,6.07
2018-09-13T14:46:33.086Z,5.00
2018-09-13T14:49:01.481Z,5.00
2018-09-13T14:51:29.854Z,5.47
2018-09-13T14:53:58.223Z,4.90
2018-09-13T14:56:26.646Z,5.67
2018-09-13T14:58:55.069Z,5.07
2018-09-13T15:01:23.477Z,5.57
2018-09-13T15:03:51.867Z,5.50
2018-09-13T15:06:20.250Z,6.20
2018-09-13T15:08:48.611Z,5.77
2018-09-13T15:11:17.023Z,5.70
2018-09-13T15:13:45.468Z,5.30
2018-09-13T15:16:13.861Z,5.80
2018-09-13T15:18:42.331Z,5.50
2018-09-13T15:21:10.686Z,6.53
2018-09-13T15:23:39.156Z,5.27
2018-09-13T15:26:07.536Z,6.27
2018-09-13T15:28:35.886Z,5.70
2018-09-13T15:31:04.484Z,5.90
2018-09-13T15:33:32.852Z,5.63
2018-09-13T15:36:01.235Z,5.73
2018-09-13T15:38:29.711Z,5.47
2018-09-13T15:40:58.048Z,6.30
2018-09-13T15:43:26.413Z,6.20
2018-09-13T15:45:54.783Z,6.00
2018-09-13T15:48:23.169Z,5.90
2018-09-13T15:50:51.553Z,6.20
2018-09-13T15:53:19.969Z,7.10
2018-09-13T15:55:48.357Z,6.20
2018-09-13T15:58:16.793Z,5.93
2018-09-13T16:00:45.173Z,6.73
2018-09-13T16:03:13.564Z,5.30
2018-09-13T16:05:41.951Z,6.40
2018-09-13T16:08:10.336Z,6.63
2018-09-13T16:10:38.709Z,6.17
2018-09-13T16:13:07.423Z,5.77
2018-09-13T16:15:35.678Z,6.43
2018-09-13T16:18:04.118Z,5.80
2018-09-13T16:20:32.431Z,6.30
2018-09-13T16:23:00.795Z,6.73
2018-09-13T16:25:29.143Z,5.93
2018-09-13T16:27:57.595Z,5.33
2018-09-13T16:30:25.911Z,5.93
2018-09-13T16:32:55.143Z,6.63
2018-09-13T16:35:23.529Z,6.30
2018-09-13T16:37:57.242Z,5.40
2018-09-13T16:40:31.130Z,5.97
2018-09-13T16:43:04.778Z,6.50
2018-09-13T16:45:33.263Z,6.30
2018-09-13T16:48:03.259Z,6.27
2018-09-13T16:50:31.626Z,6.40
2018-09-13T16:53:00.133Z,5.33
2018-09-13T16:55:28.594Z,6.20
2018-09-13T16:57:56.961Z,6.10
2018-09-13T17:00:26.359Z,7.00
2018-09-13T17:02:55.257Z,6.50
2018-09-13T17:05:23.651Z,5.80
2018-09-13T17:07:52.003Z,5.40
2018-09-13T17:10:20.423Z,6.40
2018-09-13T17:12:48.758Z,5.87
2018-09-13T17:15:17.274Z,7.90
2018-09-13T17:17:45.639Z,6.73
2018-09-13T17:20:14.098Z,7.70
2018-09-13T17:22:42.753Z,7.30
2018-09-13T17:25:11.155Z,90.27
2018-09-13T17:27:39.553Z,96.17
2018-09-13T17:30:08.037Z,98.47
2018-09-13T17:32:36.450Z,8.67
2018-09-13T17:35:04.870Z,10.30
2018-09-13T17:37:33.735Z,7.70
2018-09-13T17:40:02.149Z,11.63
2018-09-13T17:42:30.570Z,7.57
2018-09-13T17:44:58.904Z,8.27
2018-09-13T17:47:27.423Z,9.30
2018-09-13T17:49:55.775Z,7.60
2018-09-13T17:52:24.159Z,7.27
2018-09-13T17:54:52.531Z,7.93
2018-09-13T17:57:20.973Z,7.37
2018-09-13T17:59:49.385Z,6.63
2018-09-13T18:02:17.839Z,7.13
2018-09-13T18:04:46.211Z,6.70
2018-09-13T18:07:14.606Z,8.20
2018-09-13T18:09:43.000Z,6.87
2018-09-13T18:12:11.363Z,6.83
2018-09-13T18:14:39.746Z,6.30
2018-09-13T18:17:08.136Z,7.10
2018-09-13T18:19:36.572Z,6.33
2018-09-13T18:22:04.963Z,6.60
2018-09-13T18:24:33.365Z,6.80
2018-09-13T18:27:01.850Z,6.70
2018-09-13T18:29:30.295Z,6.53
2018-09-13T18:31:58.635Z,7.00
2018-09-13T18:34:27.052Z,6.50
2018-09-13T18:36:55.451Z,6.73
2018-09-13T18:39:23.870Z,6.40
2018-09-13T18:41:52.265Z,7.23
2018-09-13T18:44:20.667Z,6.47
2018-09-13T18:46:49.023Z,6.83
2018-09-13T18:49:17.413Z,7.40
2018-09-13T18:51:45.855Z,6.57
2018-09-13T18:54:14.373Z,8.00
2018-09-13T18:56:42.653Z,6.63
2018-09-13T18:59:11.075Z,7.10
2018-09-13T19:01:39.506Z,6.77
2018-09-13T19:04:07.958Z,7.50
2018-09-13T19:06:36.384Z,7.87
2018-09-13T19:09:07.898Z,7.00
2018-09-13T19:11:36.330Z,7.27
2018-09-13T19:14:04.893Z,6.97
2018-09-13T19:16:33.252Z,7.97
2018-09-13T19:19:01.705Z,7.10
2018-09-13T19:21:30.171Z,7.57
2018-09-13T19:23:58.548Z,7.00
2018-09-13T19:26:27.002Z,7.33
2018-09-13T19:28:55.430Z,7.10
2018-09-13T19:31:23.880Z,6.60
2018-09-13T19:33:52.284Z,6.47
2018-09-13T19:36:20.717Z,6.27
2018-09-13T19:38:49.115Z,6.10
2018-09-13T19:41:17.598Z,6.53
2018-09-13T19:43:45.989Z,6.57
2018-09-13T19:46:14.467Z,6.30
2018-09-13T19:48:42.849Z,6.40
2018-09-13T19:51:11.266Z,6.13
2018-09-13T19:53:39.730Z,6.93
2018-09-13T19:56:08.197Z,6.00
2018-09-13T19:58:36.565Z,5.37
2018-09-13T20:01:05.028Z,5.73
2018-09-13T20:03:33.461Z,5.20
2018-09-13T20:06:01.814Z,5.20
2018-09-13T20:08:30.265Z,5.83
2018-09-13T20:10:58.643Z,5.40
2018-09-13T20:13:27.033Z,5.80
2018-09-13T20:15:55.435Z,5.20
2018-09-13T20:18:23.981Z,5.90
2018-09-13T20:20:52.342Z,6.17
2018-09-13T20:23:20.832Z,5.40
2018-09-13T20:25:49.200Z,5.40
2018-09-13T20:28:17.572Z,6.27
2018-09-13T20:30:46.110Z,5.70
2018-09-13T20:33:14.523Z,6.00
2018-09-13T20:35:42.973Z,6.13
2018-09-13T20:38:11.434Z,6.17
2018-09-13T20:40:39.892Z,6.93
2018-09-13T20:43:08.331Z,7.67
2018-09-13T20:48:16.191Z,7.07
2018-09-13T20:50:45.325Z,7.47
2018-09-13T20:53:13.747Z,7.10
2018-09-13T20:55:42.206Z,6.33
2018-09-13T20:58:10.625Z,7.07
2018-09-13T21:00:39.124Z,6.10
2018-09-13T21:03:07.758Z,6.37
2018-09-13T21:05:36.178Z,5.50
2018-09-13T21:08:04.794Z,5.43
2018-09-13T21:10:33.195Z,5.47
2018-09-13T21:13:01.578Z,4.53
2018-09-13T21:15:29.998Z,5.07
2018-09-13T21:17:58.335Z,5.30
2018-09-13T21:20:27.166Z,5.37
2018-09-13T21:22:55.559Z,5.00
2018-09-13T21:25:23.929Z,4.70
2018-09-13T21:27:52.356Z,4.80
2018-09-13T21:30:20.898Z,4.50
2018-09-13T21:32:49.378Z,4.03
2018-09-13T21:35:17.816Z,4.03
2018-09-13T21:37:46.284Z,3.93
2018-09-13T21:40:14.667Z,3.77
2018-09-13T21:42:43.102Z,3.40
2018-09-13T21:45:11.527Z,3.20
2018-09-13T21:47:40.019Z,3.40
2018-09-13T21:50:08.448Z,4.00
2018-09-13T21:52:36.872Z,3.60
2018-09-13T21:55:05.240Z,3.40
2018-09-13T21:57:33.665Z,3.27
2018-09-13T22:00:02.058Z,3.80
2018-09-13T22:02:30.420Z,3.10
2018-09-13T22:04:58.800Z,3.97
2018-09-13T22:07:27.185Z,3.70
2018-09-13T22:09:55.572Z,3.10
2018-09-13T22:12:24.003Z,3.93
2018-09-13T22:14:52.417Z,3.80
2018-09-13T22:17:21.804Z,3.90
2018-09-13T22:19:50.486Z,4.43
2018-09-13T22:22:18.960Z,4.50
2018-09-13T22:24:47.363Z,4.47
2018-09-13T22:27:15.808Z,4.33
2018-09-13T22:29:44.216Z,4.07
2018-09-13T22:32:12.632Z,3.80
2018-09-13T22:34:41.100Z,3.93
2018-09-13T22:37:09.460Z,4.13
2018-09-13T22:39:37.863Z,4.87
2018-09-13T22:42:06.566Z,4.70
2018-09-13T22:44:42.030Z,4.73
2018-09-13T22:47:11.199Z,4.07
2018-09-13T22:49:40.099Z,3.67
2018-09-13T22:52:08.783Z,4.40
2018-09-13T22:54:37.212Z,4.30
2018-09-13T22:57:07.170Z,4.03
2018-09-13T22:59:35.574Z,4.57
2018-09-13T23:02:03.969Z,3.60
2018-09-13T23:04:32.527Z,3.80
2018-09-13T23:07:00.866Z,3.60
2018-09-13T23:09:29.298Z,4.10
2018-09-13T23:11:57.682Z,4.17
2018-09-13T23:14:26.068Z,3.70
2018-09-13T23:16:54.432Z,4.47
2018-09-13T23:19:22.820Z,3.60
2018-09-13T23:21:51.193Z,3.40
2018-09-13T23:24:19.618Z,3.77
2018-09-13T23:26:48.002Z,4.50
2018-09-13T23:29:16.376Z,4.17
2018-09-13T23:31:45.297Z,4.37
2018-09-13T23:34:13.674Z,5.00
2018-09-13T23:36:42.022Z,5.50
2018-09-13T23:39:10.839Z,4.23
2018-09-13T23:41:40.125Z,4.03
2018-09-13T23:44:08.538Z,4.27
2018-09-13T23:46:37.051Z,5.00
2018-09-13T23:49:05.385Z,4.97
2018-09-13T23:51:34.103Z,5.47
2018-09-13T23:54:02.491Z,4.63
2018-09-13T23:56:30.851Z,5.47
2018-09-13T23:58:59.282Z,4.93
